createdAt,value
2022-11-15T00:01:44.789Z,76.60
2022-11-15T00:05:15.410Z,75.82
2022-11-15T00:08:53.278Z,77.27
2022-11-15T00:11:55.848Z,77.48
2022-11-15T00:14:59.607Z,76.83
2022-11-15T00:18:02.343Z,76.85
2022-11-15T00:20:51.876Z,77.78
2022-11-15T00:23:48.465Z,76.84
2022-11-15T00:26:48.394Z,76.98
2022-11-15T00:29:43.638Z,76.98
2022-11-15T00:32:40.034Z,77.44
2022-11-15T00:35:34.993Z,77.13
2022-11-15T00:38:35.425Z,77.26
2022-11-15T00:41:29.388Z,76.78
2022-11-15T00:44:31.389Z,76.99
2022-11-15T00:47:37.656Z,77.98
2022-11-15T00:50:41.168Z,77.90
2022-11-15T00:53:36.787Z,77.32
2022-11-15T00:56:46.230Z,78.19
2022-11-15T00:59:57.933Z,77.48
2022-11-15T01:02:53.528Z,78.84
2022-11-15T01:05:47.229Z,78.42
2022-11-15T01:08:40.135Z,78.20
2022-11-15T01:11:34.412Z,78.91
2022-11-15T01:14:25.664Z,77.94
2022-11-15T01:17:16.468Z,78.62
2022-11-15T01:20:15.694Z,78.43
2022-11-15T01:23:07.311Z,77.96
2022-11-15T01:26:04.811Z,78.34
2022-11-15T01:28:55.729Z,77.96
2022-11-15T01:31:44.850Z,78.15
2022-11-15T01:34:34.330Z,78.83
2022-11-15T01:37:25.539Z,78.87
2022-11-15T01:40:23.369Z,79.97
2022-11-15T01:43:42.677Z,79.77
2022-11-15T01:46:42.949Z,79.03
2022-11-15T01:49:35.965Z,79.00
2022-11-15T01:52:33.056Z,78.56
2022-11-15T01:55:33.091Z,79.63
2022-11-15T01:58:37.089Z,78.67
2022-11-15T02:01:34.518Z,78.29
2022-11-15T02:04:34.021Z,77.80
2022-11-15T02:07:29.188Z,77.48
2022-11-15T02:13:40.247Z,78.05
2022-11-15T02:31:23.832Z,76.63
2022-11-15T02:37:29.587Z,77.64
2022-11-15T02:40:36.291Z,76.60
2022-11-15T02:44:00.531Z,74.03
2022-11-15T02:47:17.630Z,74.57
2022-11-15T02:50:12.998Z,75.23
2022-11-15T02:53:04.838Z,76.17
2022-11-15T02:55:55.318Z,76.86
2022-11-15T02:58:59.458Z,76.96
2022-11-15T03:07:55.739Z,76.31
2022-11-15T03:10:56.468Z,73.96
2022-11-15T03:14:22.629Z,73.63
2022-11-15T03:17:29.503Z,73.26
2022-11-15T03:20:23.337Z,72.90
2022-11-15T03:23:18.227Z,73.23
2022-11-15T03:26:18.535Z,71.86
2022-11-15T03:29:21.557Z,72.48
2022-11-15T03:32:27.419Z,72.42
2022-11-15T03:35:26.190Z,74.11
2022-11-15T03:38:34.908Z,73.97
2022-11-15T03:41:35.707Z,77.35
2022-11-15T03:49:53.207Z,76.52
2022-11-15T03:52:42.843Z,77.44
2022-11-15T03:55:34.192Z,77.00
2022-11-15T03:58:22.594Z,77.06
2022-11-15T04:01:12.241Z,78.59
2022-11-15T04:04:00.857Z,77.85
2022-11-15T04:06:49.337Z,78.37
2022-11-15T04:09:57.443Z,78.99
2022-11-15T04:12:49.000Z,78.61
2022-11-15T04:15:37.493Z,79.52
2022-11-15T04:18:25.965Z,78.65
2022-11-15T04:21:33.890Z,78.63
2022-11-15T04:24:21.995Z,79.03
2022-11-15T04:27:10.862Z,79.58
2022-11-15T04:30:00.648Z,78.59
2022-11-15T04:32:50.941Z,79.67
2022-11-15T04:35:39.938Z,79.52
2022-11-15T04:38:29.964Z,79.32
2022-11-15T04:41:18.749Z,80.26
2022-11-15T04:44:07.001Z,79.97
2022-11-15T04:46:55.967Z,80.50
2022-11-15T04:49:46.441Z,80.35
2022-11-15T04:52:37.118Z,80.49
2022-11-15T04:55:26.424Z,81.05
2022-11-15T04:58:15.390Z,80.30
2022-11-15T05:01:13.722Z,80.05
2022-11-15T05:04:22.569Z,80.07
2022-11-15T05:07:12.677Z,79.90
2022-11-15T05:10:02.611Z,80.92
2022-11-15T05:12:53.450Z,81.34
2022-11-15T05:15:42.023Z,80.87
2022-11-15T05:18:31.592Z,81.27
2022-11-15T05:21:21.468Z,81.37
2022-11-15T05:24:15.126Z,80.85
2022-11-15T05:27:06.922Z,81.71
2022-11-15T05:29:56.756Z,81.38
2022-11-15T05:32:47.698Z,81.25
2022-11-15T05:35:45.148Z,80.72
2022-11-15T05:38:37.894Z,78.99
2022-11-15T05:41:35.446Z,78.63
2022-11-15T05:44:27.790Z,77.82
2022-11-15T05:47:25.439Z,79.30
2022-11-15T05:50:19.403Z,79.31
2022-11-15T05:53:09.989Z,79.74
2022-11-15T05:55:59.010Z,78.88
2022-11-15T05:58:47.196Z,78.09
2022-11-15T06:01:40.534Z,77.58
2022-11-15T06:04:28.661Z,77.98
2022-11-15T06:07:17.334Z,78.05
2022-11-15T06:10:06.653Z,77.41
2022-11-15T06:13:03.910Z,77.16
2022-11-15T06:15:52.180Z,77.21
2022-11-15T06:18:40.315Z,77.54
2022-11-15T06:21:29.922Z,76.63
2022-11-15T06:24:17.627Z,76.80
2022-11-15T06:27:05.126Z,76.63
2022-11-15T06:29:55.435Z,76.79
2022-11-15T06:32:43.105Z,76.12
2022-11-15T06:35:31.686Z,76.55
2022-11-15T06:38:21.901Z,75.55
2022-11-15T06:41:11.845Z,74.81
2022-11-15T06:44:00.008Z,75.04
2022-11-15T06:46:49.525Z,75.07
2022-11-15T06:49:37.552Z,74.88
2022-11-15T06:52:26.478Z,74.72
2022-11-15T06:55:15.190Z,73.77
2022-11-15T06:58:03.685Z,73.89
2022-11-15T07:00:52.257Z,74.34
2022-11-15T07:03:42.182Z,74.02
2022-11-15T07:06:29.951Z,73.45
2022-11-15T07:09:17.946Z,72.89
2022-11-15T07:12:08.032Z,72.50
2022-11-15T07:14:55.898Z,71.99
2022-11-15T07:17:44.373Z,71.98
2022-11-15T07:20:32.997Z,72.36
2022-11-15T07:23:20.882Z,71.91
2022-11-15T07:26:10.263Z,69.77
2022-11-15T07:28:59.035Z,71.49
2022-11-15T07:31:52.570Z,71.48
2022-11-15T07:34:47.219Z,69.67
2022-11-15T07:37:35.184Z,70.00
2022-11-15T07:40:22.890Z,70.37
2022-11-15T07:43:10.580Z,70.74
2022-11-15T07:45:59.545Z,69.77
2022-11-15T07:48:48.260Z,69.14
2022-11-15T07:51:35.598Z,68.99
2022-11-15T07:54:23.046Z,69.97
2022-11-15T07:57:11.253Z,69.05
2022-11-15T07:59:58.786Z,68.93
2022-11-15T08:02:47.225Z,67.91
2022-11-15T08:05:36.708Z,68.08
2022-11-15T08:08:24.083Z,68.89
2022-11-15T08:11:11.725Z,68.76
2022-11-15T08:14:00.077Z,68.38
2022-11-15T08:16:47.565Z,67.39
2022-11-15T08:19:35.027Z,67.27
2022-11-15T08:22:22.487Z,66.30
2022-11-15T08:25:09.942Z,67.33
2022-11-15T08:28:01.172Z,67.01
2022-11-15T08:30:48.735Z,67.40
2022-11-15T08:33:37.002Z,66.17
2022-11-15T08:36:24.708Z,67.02
2022-11-15T08:39:15.672Z,67.08
2022-11-15T08:42:03.947Z,65.23
2022-11-15T08:44:51.725Z,64.91
2022-11-15T08:47:39.803Z,65.75
2022-11-15T08:50:28.113Z,65.49
2022-11-15T08:53:16.103Z,66.27
2022-11-15T08:56:04.340Z,64.88
2022-11-15T08:58:52.854Z,65.23
2022-11-15T09:01:40.615Z,65.11
2022-11-15T09:04:29.097Z,65.78
2022-11-15T09:07:17.187Z,65.03
2022-11-15T09:10:05.565Z,64.64
2022-11-15T09:12:54.774Z,66.08
2022-11-15T09:15:43.613Z,65.46
2022-11-15T09:18:34.215Z,64.98
2022-11-15T09:21:22.967Z,66.04
2022-11-15T09:24:14.368Z,64.93
2022-11-15T09:27:04.970Z,65.26
2022-11-15T09:29:52.983Z,66.12
2022-11-15T09:32:40.927Z,65.84
2022-11-15T09:35:31.512Z,65.97
2022-11-15T09:38:20.870Z,65.79
2022-11-15T09:49:25.164Z,65.80
2022-11-15T09:52:05.510Z,65.59
2022-11-15T09:54:55.805Z,66.01
2022-11-15T09:57:56.091Z,64.47
2022-11-15T10:00:46.497Z,65.13
2022-11-15T10:05:58.844Z,65.15
2022-11-15T10:14:06.651Z,64.06
2022-11-15T10:20:05.355Z,65.32
2022-11-15T10:22:46.399Z,67.35
2022-11-15T10:28:28.056Z,64.66
2022-11-15T10:30:57.946Z,67.08
2022-11-15T10:33:37.805Z,67.22
2022-11-15T10:44:25.866Z,66.52
2022-11-15T10:49:35.530Z,65.88
2022-11-15T10:52:18.632Z,66.56
2022-11-15T10:55:11.000Z,67.38
2022-11-15T10:57:43.513Z,66.45
2022-11-15T11:03:39.614Z,66.80
2022-11-15T11:06:16.129Z,66.72
2022-11-15T11:09:03.074Z,66.34
2022-11-15T11:11:50.629Z,67.30
2022-11-15T11:25:51.421Z,66.39
2022-11-15T11:40:01.503Z,66.51
2022-11-15T11:42:40.724Z,65.90
2022-11-15T11:48:22.751Z,66.10
2022-11-15T11:50:54.888Z,66.29
2022-11-15T11:53:40.589Z,66.18
2022-11-15T11:56:24.033Z,65.54
2022-11-15T11:59:00.629Z,65.86
2022-11-15T12:01:43.987Z,65.99
2022-11-15T12:07:12.746Z,66.92
2022-11-15T12:09:49.896Z,66.56
2022-11-15T12:15:06.091Z,67.49
2022-11-15T12:17:34.870Z,67.59
2022-11-15T12:20:15.080Z,67.05
2022-11-15T12:23:02.816Z,67.09
2022-11-15T12:25:54.198Z,67.60
2022-11-15T12:29:07.915Z,66.87
2022-11-15T12:40:39.089Z,69.15
2022-11-15T12:45:56.003Z,69.89
2022-11-15T12:51:05.862Z,70.10
2022-11-15T12:53:41.273Z,71.02
2022-11-15T13:04:41.396Z,69.66
2022-11-15T13:13:16.906Z,69.60
2022-11-15T13:18:36.209Z,70.55
2022-11-15T13:21:41.302Z,70.55
2022-11-15T13:24:15.295Z,70.94
2022-11-15T13:26:47.205Z,70.94
2022-11-15T13:29:21.174Z,70.82
2022-11-15T13:32:00.264Z,70.75
2022-11-15T13:34:52.495Z,71.59
2022-11-15T13:40:27.202Z,71.58
2022-11-15T13:43:31.311Z,71.81
2022-11-15T13:48:59.950Z,73.46
2022-11-15T13:51:52.489Z,72.79
2022-11-15T13:57:12.043Z,73.34
2022-11-15T14:00:07.228Z,73.74
2022-11-15T14:02:46.281Z,74.51
2022-11-15T14:05:22.080Z,75.01
2022-11-15T14:08:27.151Z,76.18
2022-11-15T14:11:21.480Z,76.15
2022-11-15T14:16:56.754Z,77.23
2022-11-15T14:22:31.208Z,76.54
2022-11-15T14:25:27.160Z,77.76
2022-11-15T14:28:17.631Z,76.96
2022-11-15T14:30:52.274Z,77.24
2022-11-15T14:33:40.480Z,78.26
2022-11-15T14:36:19.977Z,79.55
2022-11-15T14:38:53.974Z,78.43
2022-11-15T14:41:34.506Z,79.30
2022-11-15T14:44:04.431Z,80.05
2022-11-15T14:46:36.070Z,80.21
2022-11-15T14:49:05.081Z,80.29
2022-11-15T14:51:36.212Z,79.24
2022-11-15T14:54:06.393Z,80.68
2022-11-15T14:56:48.210Z,80.67
2022-11-15T14:59:19.378Z,81.05
2022-11-15T15:01:49.313Z,81.45
2022-11-15T15:04:18.511Z,81.39
2022-11-15T15:06:51.209Z,81.50
2022-11-15T15:09:19.928Z,82.03
2022-11-15T15:11:49.505Z,81.81
2022-11-15T15:14:19.068Z,81.38
2022-11-15T15:16:53.890Z,81.62
2022-11-15T15:19:26.253Z,82.30
2022-11-15T15:21:57.622Z,83.28
2022-11-15T15:24:36.219Z,83.36
2022-11-15T15:27:08.774Z,82.86
2022-11-15T15:29:39.279Z,83.04
2022-11-15T15:32:16.763Z,83.46
2022-11-15T15:34:51.030Z,83.24
2022-11-15T15:40:06.011Z,83.92
2022-11-15T15:42:40.863Z,83.83
2022-11-15T15:45:16.773Z,83.57
2022-11-15T15:48:13.047Z,83.68
2022-11-15T15:50:57.184Z,83.79
2022-11-15T15:53:46.127Z,83.93
2022-11-15T15:56:36.731Z,85.07
2022-11-15T15:59:28.233Z,84.73
2022-11-15T16:02:26.445Z,84.55
2022-11-15T16:05:12.332Z,84.09
2022-11-15T16:07:53.169Z,85.34
2022-11-15T16:10:46.270Z,84.98
2022-11-15T16:13:32.572Z,84.73
2022-11-15T16:16:17.838Z,84.91
2022-11-15T16:18:56.771Z,85.39
2022-11-15T16:21:46.461Z,86.10
2022-11-15T16:24:32.367Z,85.37
2022-11-15T16:27:11.990Z,85.96
2022-11-15T16:29:52.598Z,86.37
2022-11-15T16:32:34.175Z,86.35
2022-11-15T16:35:09.052Z,86.40
2022-11-15T16:37:46.831Z,85.96
2022-11-15T16:40:37.590Z,85.61
2022-11-15T16:43:13.321Z,86.80
2022-11-15T16:45:48.721Z,85.71
2022-11-15T16:51:00.525Z,86.21
2022-11-15T16:53:30.226Z,85.64
2022-11-15T16:56:01.531Z,85.21
2022-11-15T16:58:30.616Z,86.66
2022-11-15T17:00:59.263Z,85.91
2022-11-15T17:03:28.079Z,86.85
2022-11-15T17:06:00.067Z,86.38
2022-11-15T17:08:29.410Z,86.53
2022-11-15T17:10:57.736Z,86.07
2022-11-15T17:13:26.150Z,86.92
2022-11-15T17:16:05.212Z,86.98
2022-11-15T17:18:33.988Z,86.04
2022-11-15T17:21:15.128Z,86.76
2022-11-15T17:23:47.136Z,87.31
2022-11-15T17:26:29.609Z,86.56
2022-11-15T17:29:01.742Z,86.29
2022-11-15T17:31:31.693Z,86.84
2022-11-15T17:34:00.007Z,87.06
2022-11-15T17:36:28.430Z,86.10
2022-11-15T17:39:00.248Z,87.48
2022-11-15T17:41:29.612Z,87.26
2022-11-15T17:44:00.582Z,87.56
2022-11-15T17:46:29.960Z,86.96
2022-11-15T17:48:59.228Z,87.81
2022-11-15T17:51:27.842Z,87.96
2022-11-15T17:53:58.925Z,87.73
2022-11-15T17:56:29.140Z,87.16
2022-11-15T17:59:01.439Z,86.71
2022-11-15T18:01:50.450Z,87.76
2022-11-15T18:04:19.407Z,87.22
2022-11-15T18:06:48.513Z,87.30
2022-11-15T18:09:17.041Z,87.88
2022-11-15T18:11:54.242Z,87.89
2022-11-15T18:14:30.750Z,86.97
2022-11-15T18:17:00.972Z,86.62
2022-11-15T18:19:29.713Z,87.97
2022-11-15T18:22:02.014Z,87.74
2022-11-15T18:24:35.600Z,87.85
2022-11-15T18:27:06.111Z,87.85
2022-11-15T18:29:38.455Z,87.37
2022-11-15T18:32:12.100Z,87.23
2022-11-15T18:34:40.960Z,87.16
2022-11-15T18:37:09.718Z,87.74
2022-11-15T18:39:38.971Z,87.21
2022-11-15T18:42:07.172Z,88.03
2022-11-15T18:44:36.020Z,88.08
2022-11-15T18:47:04.753Z,87.83
2022-11-15T18:49:36.511Z,87.17
2022-11-15T18:52:05.070Z,88.25
2022-11-15T18:54:34.409Z,88.35
2022-11-15T18:57:03.432Z,87.45
2022-11-15T18:59:32.880Z,87.88
2022-11-15T19:02:07.401Z,87.62
2022-11-15T19:04:39.198Z,87.62
2022-11-15T19:07:08.664Z,87.72
2022-11-15T19:09:40.022Z,87.65
2022-11-15T19:12:11.951Z,87.78
2022-11-15T19:14:41.299Z,87.29
2022-11-15T19:17:11.410Z,87.53
2022-11-15T19:19:44.304Z,87.69
2022-11-15T19:22:12.955Z,87.64
2022-11-15T19:24:41.385Z,88.19
2022-11-15T19:27:13.502Z,87.73
2022-11-15T19:29:43.626Z,87.86
2022-11-15T19:32:13.188Z,87.74
2022-11-15T19:34:42.630Z,87.31
2022-11-15T19:37:14.912Z,88.06
2022-11-15T19:39:44.240Z,88.17
2022-11-15T19:42:13.476Z,88.41
2022-11-15T19:44:45.292Z,88.40
2022-11-15T19:47:14.948Z,87.96
2022-11-15T19:49:47.290Z,88.56
2022-11-15T19:52:17.230Z,88.20
2022-11-15T19:54:47.860Z,88.96
2022-11-15T19:57:17.474Z,87.95
2022-11-15T19:59:49.673Z,88.70
2022-11-15T20:02:18.950Z,87.87
2022-11-15T20:04:47.658Z,88.85
2022-11-15T20:07:19.662Z,88.49
2022-11-15T20:09:48.371Z,88.95
2022-11-15T20:12:16.926Z,89.14
2022-11-15T20:14:46.980Z,89.29
2022-11-15T20:17:15.834Z,88.52
2022-11-15T20:19:45.650Z,88.51
2022-11-15T20:22:20.329Z,88.04
2022-11-15T20:24:53.223Z,87.96
2022-11-15T20:27:22.867Z,89.13
2022-11-15T20:29:52.939Z,88.62
2022-11-15T20:32:21.830Z,88.50
2022-11-15T20:34:54.045Z,89.28
2022-11-15T20:37:23.399Z,89.28
2022-11-15T20:39:51.613Z,89.63
2022-11-15T20:42:20.674Z,89.63
2022-11-15T20:44:49.886Z,89.05
2022-11-15T20:47:18.173Z,89.05
2022-11-15T20:49:47.808Z,89.23
2022-11-15T20:52:17.144Z,88.39
2022-11-15T20:54:48.587Z,88.98
2022-11-15T20:57:17.423Z,88.38
2022-11-15T20:59:50.049Z,88.63
2022-11-15T21:02:24.986Z,88.02
2022-11-15T21:04:56.193Z,88.34
2022-11-15T21:07:27.667Z,89.23
2022-11-15T21:10:17.912Z,87.92
2022-11-15T21:12:50.378Z,88.43
2022-11-15T21:15:22.920Z,88.67
2022-11-15T21:17:53.636Z,88.63
2022-11-15T21:20:26.487Z,87.77
2022-11-15T21:22:56.913Z,88.34
2022-11-15T21:25:26.753Z,87.72
2022-11-15T21:27:55.742Z,88.03
2022-11-15T21:30:25.576Z,87.88
2022-11-15T21:32:56.950Z,88.90
2022-11-15T21:35:33.832Z,88.78
2022-11-15T21:38:06.350Z,88.19
2022-11-15T21:40:35.724Z,88.43
2022-11-15T21:43:06.792Z,88.29
2022-11-15T21:45:38.234Z,88.25
2022-11-15T21:48:07.392Z,88.57
2022-11-15T21:50:40.952Z,88.57
2022-11-15T21:53:10.837Z,87.48
2022-11-15T21:55:43.473Z,88.94
2022-11-15T21:58:22.912Z,88.16
2022-11-15T22:01:18.912Z,88.82
2022-11-15T22:03:48.193Z,88.83
2022-11-15T22:06:26.991Z,88.94
2022-11-15T22:09:02.031Z,89.11
2022-11-15T22:11:36.559Z,88.15
2022-11-15T22:14:12.048Z,89.16
2022-11-15T22:33:38.005Z,88.76
2022-11-15T23:15:02.316Z,88.94
2022-11-15T23:22:32.045Z,87.92
2022-11-15T23:25:35.432Z,89.33
2022-11-15T23:28:53.613Z,88.46
2022-11-15T23:32:09.713Z,89.80
2022-11-15T23:34:55.114Z,89.25
2022-11-15T23:38:40.760Z,88.55
2022-11-15T23:41:53.254Z,88.19
2022-11-15T23:45:32.953Z,88.95
2022-11-15T23:49:13.632Z,89.38
